createdAt,value
2018-04-01T00:03:00.286Z,1.70
2018-04-01T00:06:02.241Z,1.66
2018-04-01T00:09:04.130Z,1.63
2018-04-01T00:12:06.096Z,1.65
2018-04-01T00:15:08.111Z,1.72
2018-04-01T00:18:10.054Z,1.71
2018-04-01T00:21:11.974Z,1.85
2018-04-01T00:24:13.935Z,1.68
2018-04-01T00:27:15.816Z,1.60
2018-04-01T00:30:17.862Z,1.65
2018-04-01T00:33:19.909Z,1.58
2018-04-01T00:36:21.820Z,1.66
2018-04-01T00:39:25.009Z,1.66
2018-04-01T00:42:26.886Z,1.65
2018-04-01T00:45:28.825Z,1.64
2018-04-01T00:48:31.423Z,1.61
2018-04-01T00:51:33.446Z,1.57
2018-04-01T00:54:36.240Z,1.52
2018-04-01T00:57:38.176Z,1.50
2018-04-01T01:00:40.074Z,1.43
2018-04-01T01:03:42.000Z,1.41
2018-04-01T01:06:43.906Z,1.41
2018-04-01T01:09:45.852Z,1.38
2018-04-01T01:12:47.805Z,1.41
2018-04-01T01:15:49.679Z,1.41
2018-04-01T01:18:52.979Z,1.41
2018-04-01T01:21:54.885Z,1.43
2018-04-01T01:24:56.819Z,1.43
2018-04-01T01:27:58.701Z,1.42
2018-04-01T01:31:00.622Z,1.42
2018-04-01T01:34:02.582Z,1.42
2018-04-01T01:37:04.510Z,1.34
2018-04-01T01:40:06.467Z,1.36
2018-04-01T01:43:08.407Z,1.36
2018-04-01T01:46:10.326Z,1.34
2018-04-01T01:49:12.316Z,1.32
2018-04-01T01:52:14.264Z,1.33
2018-04-01T01:55:17.842Z,1.37
2018-04-01T01:58:19.797Z,1.42
2018-04-01T02:01:21.786Z,1.40
2018-04-01T02:04:23.645Z,1.38
2018-04-01T02:07:26.240Z,1.36
2018-04-01T02:10:28.131Z,1.23
2018-04-01T02:13:31.286Z,1.19
2018-04-01T02:16:33.231Z,1.27
2018-04-01T02:19:35.140Z,1.18
2018-04-01T02:22:40.178Z,1.11
2018-04-01T02:25:42.145Z,1.13
2018-04-01T02:28:44.087Z,1.16
2018-04-01T02:31:46.037Z,1.13
2018-04-01T02:34:47.986Z,1.12
2018-04-01T02:37:49.942Z,1.11
2018-04-01T02:40:51.852Z,1.13
2018-04-01T02:43:53.765Z,1.14
2018-04-01T02:46:55.654Z,1.20
2018-04-01T02:49:57.631Z,1.28
2018-04-01T02:53:00.616Z,1.19
2018-04-01T02:56:02.558Z,1.08
2018-04-01T02:59:04.611Z,1.03
2018-04-01T03:02:06.549Z,1.01
2018-04-01T03:05:08.436Z,1.01
2018-04-01T03:08:10.323Z,0.93
2018-04-01T03:11:12.228Z,0.91
2018-04-01T03:14:14.145Z,0.93
2018-04-01T03:17:16.076Z,0.82
2018-04-01T03:20:17.999Z,0.80
2018-04-01T03:23:19.993Z,0.79
2018-04-01T03:26:21.897Z,0.81
2018-04-01T03:29:23.856Z,0.73
2018-04-01T03:32:25.788Z,0.64
2018-04-01T03:35:27.737Z,0.65
2018-04-01T03:38:29.638Z,0.67
2018-04-01T03:41:31.577Z,0.63
2018-04-01T03:44:33.652Z,0.58
2018-04-01T03:47:35.683Z,0.63
2018-04-01T03:50:37.622Z,0.64
2018-04-01T03:53:39.588Z,0.66
2018-04-01T03:56:41.607Z,0.58
2018-04-01T03:59:43.562Z,0.49
2018-04-01T04:02:45.489Z,0.45
2018-04-01T04:05:47.433Z,0.45
2018-04-01T04:08:49.352Z,0.48
2018-04-01T04:11:51.313Z,0.48
2018-04-01T04:14:53.274Z,0.40
2018-04-01T04:17:55.148Z,0.33
2018-04-01T04:20:57.112Z,0.34
2018-04-01T04:23:59.165Z,0.31
2018-04-01T04:27:01.102Z,0.18
2018-04-01T04:30:02.995Z,0.29
2018-04-01T04:33:04.916Z,0.35
2018-04-01T04:36:06.798Z,0.23
2018-04-01T04:39:08.810Z,0.23
2018-04-01T04:42:10.872Z,0.25
2018-04-01T04:45:12.996Z,0.10
2018-04-01T04:48:14.889Z,0.13
2018-04-01T04:51:16.824Z,0.10
2018-04-01T04:54:18.760Z,0.15
2018-04-01T04:57:20.692Z,0.18
2018-04-01T05:00:22.572Z,0.27
2018-04-01T05:03:24.518Z,0.36
2018-04-01T05:06:26.467Z,0.35
2018-04-01T05:09:28.404Z,0.27
2018-04-01T05:12:30.322Z,0.23
2018-04-01T05:15:32.268Z,0.21
2018-04-01T05:18:34.248Z,0.23
2018-04-01T05:21:36.203Z,0.30
2018-04-01T05:24:38.148Z,0.38
2018-04-01T05:27:40.045Z,0.39
2018-04-01T05:30:41.994Z,0.53
2018-04-01T05:33:43.895Z,0.46
2018-04-01T05:36:45.847Z,0.54
2018-04-01T05:39:47.773Z,0.45
2018-04-01T05:42:49.700Z,0.53
2018-04-01T05:45:51.690Z,0.55
2018-04-01T05:48:53.633Z,0.58
2018-04-01T05:51:55.688Z,0.57
2018-04-01T05:54:57.576Z,0.52
2018-04-01T05:57:59.587Z,0.46
2018-04-01T06:01:01.513Z,0.45
2018-04-01T06:04:03.513Z,0.48
2018-04-01T06:07:05.432Z,0.53
2018-04-01T06:10:07.369Z,0.49
2018-04-01T06:13:09.329Z,0.60
2018-04-01T06:16:11.244Z,0.60
2018-04-01T06:19:13.225Z,0.54
2018-04-01T06:22:15.110Z,0.55
2018-04-01T06:25:17.130Z,0.77
2018-04-01T06:28:19.058Z,0.86
2018-04-01T06:31:20.975Z,0.92
2018-04-01T06:34:22.970Z,0.89
2018-04-01T06:37:24.919Z,1.13
2018-04-01T06:40:26.901Z,1.11
2018-04-01T06:43:28.779Z,1.29
2018-04-01T06:46:30.711Z,1.16
2018-04-01T06:49:32.757Z,1.25
2018-04-01T06:52:34.609Z,1.50
2018-04-01T06:55:36.578Z,1.62
2018-04-01T06:58:38.509Z,1.70
2018-04-01T07:01:40.443Z,1.69
2018-04-01T07:04:42.376Z,1.78
2018-04-01T07:07:44.315Z,1.53
2018-04-01T07:10:46.355Z,1.49
2018-04-01T07:13:48.261Z,1.45
2018-04-01T07:16:50.170Z,1.42
2018-04-01T07:19:52.085Z,1.52
2018-04-01T07:22:54.025Z,1.48
2018-04-01T07:25:55.971Z,1.60
2018-04-01T07:28:57.946Z,1.68
2018-04-01T07:31:59.996Z,1.65
2018-04-01T07:35:01.925Z,1.55
2018-04-01T07:38:03.856Z,1.57
2018-04-01T07:41:05.840Z,1.55
2018-04-01T07:44:08.944Z,1.51
2018-04-01T07:47:10.974Z,1.36
2018-04-01T07:50:12.910Z,1.51
2018-04-01T07:53:14.868Z,1.63
2018-04-01T07:56:16.814Z,1.94
2018-04-01T07:59:18.872Z,1.98
2018-04-01T08:02:20.849Z,1.92
2018-04-01T08:05:22.872Z,1.90
2018-04-01T08:08:24.765Z,1.91
2018-04-01T08:11:26.771Z,1.69
2018-04-01T08:14:28.721Z,1.67
2018-04-01T08:17:30.673Z,1.52
2018-04-01T08:20:32.626Z,1.68
2018-04-01T08:23:34.549Z,1.85
2018-04-01T08:26:36.496Z,1.99
2018-04-01T08:29:38.419Z,1.98
2018-04-01T08:32:40.346Z,2.06
2018-04-01T08:35:42.257Z,2.16
2018-04-01T08:38:44.208Z,2.17
2018-04-01T08:41:46.097Z,2.14
2018-04-01T08:44:48.012Z,1.92
2018-04-01T08:47:50.057Z,1.95
2018-04-01T08:50:51.963Z,2.29
2018-04-01T08:53:53.959Z,2.26
2018-04-01T08:56:56.005Z,2.32
2018-04-01T08:59:58.056Z,2.10
2018-04-01T09:02:59.981Z,2.36
2018-04-01T09:06:01.962Z,2.39
2018-04-01T09:09:03.896Z,2.21
2018-04-01T09:12:05.855Z,2.36
2018-04-01T09:15:08.310Z,2.66
2018-04-01T09:18:10.268Z,2.42
2018-04-01T09:21:12.182Z,2.31
2018-04-01T09:24:14.106Z,2.56
2018-04-01T09:27:17.016Z,2.53
2018-04-01T09:30:18.950Z,2.88
2018-04-01T09:33:20.840Z,3.03
2018-04-01T09:36:22.791Z,3.23
2018-04-01T09:39:24.698Z,3.16
2018-04-01T09:42:26.641Z,3.35
2018-04-01T09:45:28.657Z,3.16
2018-04-01T09:48:30.772Z,2.78
2018-04-01T09:51:32.708Z,3.14
2018-04-01T09:54:34.622Z,3.56
2018-04-01T09:57:36.578Z,3.85
2018-04-01T10:00:56.576Z,3.80
2018-04-01T10:03:59.139Z,3.87
2018-04-01T10:07:01.612Z,3.94
2018-04-01T10:10:04.151Z,3.35
2018-04-01T10:13:06.672Z,3.44
2018-04-01T10:16:09.312Z,3.63
2018-04-01T10:19:11.852Z,3.27
2018-04-01T10:22:14.413Z,3.29
2018-04-01T10:25:16.889Z,3.92
2018-04-01T10:28:19.407Z,3.90
2018-04-01T10:31:21.865Z,3.93
2018-04-01T10:34:24.379Z,3.82
2018-04-01T10:37:27.000Z,3.63
2018-04-01T10:40:29.549Z,3.35
2018-04-01T10:43:32.143Z,3.46
2018-04-01T10:46:34.630Z,3.60
2018-04-01T10:49:37.142Z,3.73
2018-04-01T10:52:39.817Z,4.08
2018-04-01T10:55:41.727Z,3.78
2018-04-01T10:58:43.682Z,3.85
2018-04-01T11:01:45.682Z,3.70
2018-04-01T11:04:47.671Z,3.77
2018-04-01T11:07:49.647Z,4.10
2018-04-01T11:10:51.584Z,4.32
2018-04-01T11:13:53.576Z,4.63
2018-04-01T11:16:55.528Z,4.18
2018-04-01T11:19:57.453Z,3.82
2018-04-01T11:23:00.048Z,3.65
2018-04-01T11:26:02.048Z,3.99
2018-04-01T11:29:04.411Z,4.07
2018-04-01T11:32:06.384Z,4.33
2018-04-01T11:35:08.287Z,4.33
2018-04-01T11:38:10.394Z,4.59
2018-04-01T11:41:12.384Z,4.42
2018-04-01T11:44:14.393Z,4.44
2018-04-01T11:47:16.354Z,4.39
2018-04-01T11:50:18.297Z,4.73
2018-04-01T11:53:20.243Z,4.36
2018-04-01T11:56:22.267Z,4.41
2018-04-01T11:59:24.237Z,4.49
2018-04-01T12:02:26.289Z,4.28
2018-04-01T12:05:28.239Z,4.33
2018-04-01T12:08:30.187Z,4.52
2018-04-01T12:11:32.241Z,4.80
2018-04-01T12:14:34.194Z,5.02
2018-04-01T12:17:36.137Z,4.44
2018-04-01T12:20:38.198Z,4.95
2018-04-01T12:23:40.088Z,4.83
2018-04-01T12:26:42.090Z,4.68
2018-04-01T12:29:44.040Z,5.24
2018-04-01T12:32:46.033Z,4.95
2018-04-01T12:35:48.039Z,4.98
2018-04-01T12:38:50.894Z,4.86
2018-04-01T12:41:52.857Z,4.87
2018-04-01T12:44:54.783Z,5.05
2018-04-01T12:47:56.769Z,4.74
2018-04-01T12:50:58.714Z,4.71
2018-04-01T12:54:00.650Z,4.58
2018-04-01T12:57:02.593Z,4.57
2018-04-01T13:00:04.507Z,4.66
2018-04-01T13:03:06.443Z,4.60
2018-04-01T13:06:08.414Z,4.62
2018-04-01T13:09:10.340Z,5.00
2018-04-01T13:12:12.344Z,5.12
2018-04-01T13:15:14.279Z,5.50
2018-04-01T13:18:16.255Z,5.19
2018-04-01T13:21:19.901Z,5.16
2018-04-01T13:24:21.838Z,4.68
2018-04-01T13:27:23.770Z,4.71
2018-04-01T13:30:25.720Z,4.75
2018-04-01T13:33:27.620Z,4.62
2018-04-01T13:36:29.585Z,4.58
2018-04-01T13:39:31.545Z,4.77
2018-04-01T13:42:33.486Z,4.87
2018-04-01T13:45:35.457Z,4.65
2018-04-01T13:48:37.380Z,4.84
2018-04-01T13:51:39.389Z,4.68
2018-04-01T13:54:41.310Z,5.23
2018-04-01T13:57:43.301Z,4.87
2018-04-01T14:00:45.284Z,5.21
2018-04-01T14:03:47.245Z,5.25
2018-04-01T14:06:49.166Z,5.47
2018-04-01T14:09:51.144Z,5.30
2018-04-01T14:12:53.151Z,5.52
2018-04-01T14:15:55.215Z,5.38
2018-04-01T14:18:57.271Z,5.51
2018-04-01T14:21:59.223Z,5.40
2018-04-01T14:25:01.165Z,5.11
2018-04-01T14:28:03.244Z,5.38
2018-04-01T14:31:05.210Z,5.48
2018-04-01T14:34:07.175Z,5.18
2018-04-01T14:37:09.171Z,5.40
2018-04-01T14:40:11.182Z,5.26
2018-04-01T14:43:13.147Z,5.20
2018-04-01T14:46:15.051Z,5.57
2018-04-01T14:49:17.008Z,5.64
2018-04-01T14:52:18.941Z,5.81
2018-04-01T14:55:20.915Z,5.79
2018-04-01T14:58:22.870Z,6.01
2018-04-01T15:01:24.880Z,5.67
2018-04-01T15:04:26.800Z,5.86
2018-04-01T15:07:28.787Z,5.43
2018-04-01T15:10:30.675Z,5.25
2018-04-01T15:13:32.755Z,5.35
2018-04-01T15:16:34.672Z,5.43
2018-04-01T15:19:36.669Z,5.19
2018-04-01T15:22:38.635Z,5.28
2018-04-01T15:25:40.659Z,5.38
2018-04-01T15:28:42.609Z,5.33
2018-04-01T15:31:44.585Z,5.34
2018-04-01T15:34:46.521Z,5.36
2018-04-01T15:37:48.509Z,5.36
2018-04-01T15:40:50.486Z,5.36
2018-04-01T15:43:52.403Z,5.67
2018-04-01T15:46:54.402Z,5.20
2018-04-01T15:49:56.374Z,5.18
2018-04-01T15:52:58.392Z,5.03
2018-04-01T15:56:00.343Z,5.03
2018-04-01T15:59:02.226Z,5.12
2018-04-01T16:02:04.144Z,5.16
2018-04-01T16:05:06.029Z,5.51
2018-04-01T16:08:07.980Z,5.41
2018-04-01T16:11:09.920Z,5.34
2018-04-01T16:14:11.875Z,5.30
2018-04-01T16:17:13.787Z,5.06
2018-04-01T16:20:15.748Z,5.20
2018-04-01T16:23:17.886Z,5.30
2018-04-01T16:26:19.840Z,5.27
2018-04-01T16:29:21.777Z,5.20
2018-04-01T16:32:23.831Z,4.97
2018-04-01T16:35:25.787Z,5.11
2018-04-01T16:38:27.761Z,5.20
2018-04-01T16:41:29.707Z,4.89
2018-04-01T16:44:31.732Z,4.83
2018-04-01T16:47:33.666Z,4.98
2018-04-01T16:50:35.606Z,4.79
2018-04-01T16:53:37.548Z,4.92
2018-04-01T16:56:39.455Z,4.79
2018-04-01T16:59:41.521Z,4.81
2018-04-01T17:02:43.433Z,4.83
2018-04-01T17:05:45.399Z,4.84
2018-04-01T17:08:47.356Z,4.89
2018-04-01T17:11:49.283Z,4.81
2018-04-01T17:14:51.323Z,4.78
2018-04-01T17:17:53.372Z,4.81
2018-04-01T17:20:55.422Z,4.75
2018-04-01T17:23:57.358Z,4.80
2018-04-01T17:26:59.251Z,4.72
2018-04-01T17:30:01.287Z,4.62
2018-04-01T17:33:03.243Z,4.71
2018-04-01T17:36:05.172Z,4.80
2018-04-01T17:39:07.223Z,4.84
2018-04-01T17:42:09.202Z,4.94
2018-04-01T17:45:11.113Z,4.94
2018-04-01T17:48:13.047Z,5.02
2018-04-01T17:51:14.980Z,5.04
2018-04-01T17:54:16.911Z,5.13
2018-04-01T17:57:18.913Z,5.05
2018-04-01T18:00:20.861Z,5.11
2018-04-01T18:03:22.906Z,5.18
2018-04-01T18:06:24.802Z,5.15
2018-04-01T18:09:26.809Z,5.17
2018-04-01T18:12:28.883Z,5.22
2018-04-01T18:15:30.794Z,5.28
2018-04-01T18:18:32.717Z,5.27
2018-04-01T18:21:34.643Z,5.25
2018-04-01T18:24:36.859Z,5.28
2018-04-01T18:27:38.911Z,5.31
2018-04-01T18:30:40.845Z,5.28
2018-04-01T18:33:42.788Z,5.22
2018-04-01T18:36:44.757Z,5.30
2018-04-01T18:39:46.684Z,5.27
2018-04-01T18:42:48.769Z,5.25
2018-04-01T18:45:50.714Z,5.23
2018-04-01T18:48:52.693Z,5.23
2018-04-01T18:51:54.662Z,5.25
2018-04-01T18:54:56.652Z,5.25
2018-04-01T18:57:58.702Z,5.12
2018-04-01T19:01:00.661Z,5.15
2018-04-01T19:04:02.716Z,5.15
2018-04-01T19:07:04.663Z,5.11
2018-04-01T19:10:06.703Z,5.01
2018-04-01T19:13:08.658Z,4.97
2018-04-01T19:16:11.223Z,4.91
2018-04-01T19:22:23.567Z,4.75
2018-04-01T19:25:26.058Z,4.62
2018-04-01T19:28:28.575Z,4.49
2018-04-01T19:31:31.165Z,4.34
2018-04-01T19:34:33.669Z,4.24
2018-04-01T19:37:36.118Z,4.13
2018-04-01T19:40:38.675Z,4.03
2018-04-01T19:43:41.197Z,3.98
2018-04-01T19:46:43.767Z,3.95
2018-04-01T19:49:46.221Z,3.90
2018-04-01T19:52:48.751Z,3.84
2018-04-01T19:55:51.253Z,3.88
2018-04-01T19:58:53.848Z,3.86
2018-04-01T20:01:56.310Z,3.91
2018-04-01T20:04:58.783Z,4.00
2018-04-01T20:08:01.448Z,4.03
2018-04-01T20:11:03.998Z,4.02
2018-04-01T20:14:06.825Z,4.02
2018-04-01T20:17:09.852Z,4.01
2018-04-01T20:20:12.333Z,4.01
2018-04-01T20:23:14.813Z,4.01
2018-04-01T20:26:17.345Z,4.02
2018-04-01T20:29:19.935Z,4.01
2018-04-01T20:32:22.505Z,4.01
2018-04-01T20:35:25.055Z,4.01
2018-04-01T20:38:27.508Z,4.03
2018-04-01T20:41:31.419Z,4.06
2018-04-01T20:44:33.942Z,4.08
2018-04-01T20:47:36.465Z,4.09
2018-04-01T20:50:39.058Z,4.05
2018-04-01T20:53:41.615Z,4.09
2018-04-01T20:56:44.200Z,4.08
2018-04-01T20:59:46.696Z,4.06
2018-04-01T21:02:49.314Z,3.97
2018-04-01T21:05:51.805Z,4.00
2018-04-01T21:08:54.246Z,3.90
2018-04-01T21:11:56.748Z,3.89
2018-04-01T21:14:59.269Z,3.90
2018-04-01T21:18:01.796Z,3.88
2018-04-01T21:21:04.381Z,3.88
2018-04-01T21:24:06.905Z,3.85
2018-04-01T21:27:09.396Z,3.77
2018-04-01T21:30:11.897Z,3.84
2018-04-01T21:33:14.365Z,3.87
2018-04-01T21:36:16.874Z,3.89
2018-04-01T21:39:19.375Z,3.84
2018-04-01T21:42:21.884Z,3.76
2018-04-01T21:45:24.430Z,3.78
2018-04-01T21:48:26.930Z,3.77
2018-04-01T21:51:29.521Z,3.75
2018-04-01T21:54:32.055Z,3.68
2018-04-01T21:57:34.625Z,3.72
2018-04-01T22:00:37.182Z,3.67
2018-04-01T22:03:39.666Z,3.69
2018-04-01T22:06:42.170Z,3.63
2018-04-01T22:09:44.667Z,3.64
2018-04-01T22:12:47.149Z,3.67
2018-04-01T22:15:49.694Z,3.71
2018-04-01T22:18:52.175Z,3.64
2018-04-01T22:21:54.690Z,3.67
2018-04-01T22:24:57.191Z,3.64
2018-04-01T22:27:59.670Z,3.69
2018-04-01T22:31:02.220Z,3.67
2018-04-01T22:34:04.711Z,3.67
2018-04-01T22:37:07.152Z,3.70
2018-04-01T22:40:09.646Z,3.60
2018-04-01T22:43:12.146Z,3.60
2018-04-01T22:46:14.597Z,3.49
2018-04-01T22:49:17.083Z,3.50
2018-04-01T22:52:19.530Z,3.48
2018-04-01T22:55:22.087Z,3.49
2018-04-01T22:58:24.568Z,3.43
2018-04-01T23:01:27.111Z,3.45
2018-04-01T23:04:29.599Z,3.41
2018-04-01T23:07:32.127Z,3.44
2018-04-01T23:10:34.610Z,3.45
2018-04-01T23:13:37.152Z,3.46
2018-04-01T23:16:39.591Z,3.42
2018-04-01T23:19:42.052Z,3.34
2018-04-01T23:22:44.569Z,3.33
2018-04-01T23:25:47.096Z,3.34
2018-04-01T23:28:49.587Z,3.32
2018-04-01T23:31:52.089Z,3.31
2018-04-01T23:34:54.580Z,3.32
2018-04-01T23:37:57.143Z,3.32
2018-04-01T23:40:59.705Z,3.31
2018-04-01T23:44:02.161Z,3.23
2018-04-01T23:47:04.727Z,3.15
2018-04-01T23:50:07.235Z,3.13
2018-04-01T23:53:09.718Z,3.16
2018-04-01T23:56:12.175Z,3.20
2018-04-01T23:59:14.678Z,3.17
